Time;durP1;ratioP1;P1;durP2;ratioP2;P2;SDS_P1;SDS_P2;PMS_P1;PMS_P2;Temp;Humidity;BMP_temperature;BMP_pressure;BME280_temperature;BME280_humidity;BME280_pressure;Samples;Min_cycle;Max_cycle;Signal;HPM_P1;HPM_P2
2021/04/23 00:02:15;;;;;;;13.20;6.40;;;3.80;99.90;;;;;;5004267;28;20029;-72
2021/04/23 00:04:40;;;;;;;16.10;6.75;;;3.90;99.90;;;;;;5011145;28;20551;-70
2021/04/23 00:07:06;;;;;;;13.10;6.10;;;4.00;99.90;;;;;;5011258;28;20010;-71
2021/04/23 00:09:35;;;;;;;16.10;6.28;;;3.80;99.90;;;;;;5012405;28;20392;-71
2021/04/23 00:12:08;;;;;;;14.93;6.65;;;3.60;99.90;;;;;;5011030;28;20032;-71
2021/04/23 00:14:51;;;;;;;16.90;6.03;;;3.50;99.90;;;;;;5009384;28;20049;-70
2021/04/23 00:17:18;;;;;;;15.85;6.72;;;3.60;99.90;;;;;;5011231;28;20030;-71
2021/04/23 00:19:47;;;;;;;12.07;6.63;;;3.40;99.90;;;;;;5012085;28;20045;-70
2021/04/23 00:22:13;;;;;;;13.95;6.10;;;3.40;99.90;;;;;;5012796;28;20442;-70
2021/04/23 00:24:39;;;;;;;11.13;6.82;;;3.30;99.90;;;;;;5010754;28;20052;-69
2021/04/23 00:27:06;;;;;;;15.25;6.35;;;3.30;99.90;;;;;;5001009;28;20087;-70
2021/04/23 00:29:32;;;;;;;13.82;6.53;;;3.20;99.90;;;;;;5012155;28;20388;-72
2021/04/23 00:34:42;;;;;;;12.65;6.32;;;3.20;99.90;;;;;;5005302;28;20080;-72
2021/04/23 00:37:08;;;;;;;12.63;5.90;;;3.10;99.90;;;;;;5010725;28;20032;-71
2021/04/23 00:39:35;;;;;;;11.68;6.03;;;3.00;99.90;;;;;;5012005;28;20022;-72
2021/04/23 00:42:05;;;;;;;12.45;6.13;;;3.00;99.90;;;;;;5011765;28;20033;-72
2021/04/23 00:44:30;;;;;;;11.82;6.25;;;2.90;99.90;;;;;;5010430;28;20499;-72
2021/04/23 00:46:56;;;;;;;13.65;6.60;;;2.90;99.90;;;;;;5011347;28;20022;-73
2021/04/23 00:49:22;;;;;;;13.23;6.00;;;2.90;99.90;;;;;;5010587;28;20029;-73
2021/04/23 00:51:55;;;;;;;13.95;5.97;;;2.90;99.90;;;;;;5011546;28;20554;-72
2021/04/23 00:54:22;;;;;;;15.30;6.68;;;2.90;99.90;;;;;;4995669;28;20114;-72
2021/04/23 00:56:47;;;;;;;18.40;7.20;;;2.80;99.90;;;;;;5011844;28;20049;-72
2021/04/23 00:59:14;;;;;;;12.40;6.10;;;2.80;99.90;;;;;;4997217;28;20077;-72
2021/04/23 01:02:01;;;;;;;15.25;5.80;;;2.60;99.90;;;;;;5010319;28;20168;-72
2021/04/23 01:04:30;;;;;;;10.68;6.65;;;2.60;99.90;;;;;;5001686;28;20037;-72
2021/04/23 01:06:56;;;;;;;13.02;5.95;;;2.60;99.90;;;;;;4997474;28;20102;-72
2021/04/23 01:09:25;;;;;;;12.95;6.78;;;2.50;99.90;;;;;;5009198;28;20643;-71
2021/04/23 01:11:52;;;;;;;12.50;6.82;;;2.50;99.90;;;;;;5010305;28;20442;-73
2021/04/23 01:14:18;;;;;;;13.82;7.07;;;2.40;99.90;;;;;;5010178;28;20472;-72
2021/04/23 01:16:44;;;;;;;15.10;6.20;;;2.30;99.90;;;;;;5011621;28;20428;-71
2021/04/23 01:19:15;;;;;;;12.27;6.00;;;2.40;99.90;;;;;;5010303;28;20056;-71
2021/04/23 01:21:41;;;;;;;14.73;6.72;;;2.30;99.90;;;;;;5011369;28;20018;-73
2021/04/23 01:24:10;;;;;;;14.65;6.93;;;2.40;99.90;;;;;;5011272;28;20076;-72
2021/04/23 01:26:43;;;;;;;13.90;6.70;;;2.60;99.90;;;;;;5011648;28;20010;-72
2021/04/23 01:29:11;;;;;;;13.75;6.80;;;2.60;99.90;;;;;;5010349;28;20025;-73
2021/04/23 01:31:40;;;;;;;17.17;7.13;;;2.50;99.90;;;;;;5011493;28;20022;-73
2021/04/23 01:34:24;;;;;;;17.45;7.15;;;2.40;99.90;;;;;;5011263;28;20054;-71
2021/04/23 01:36:52;;;;;;;13.52;6.20;;;2.30;99.90;;;;;;5009963;28;20419;-72
2021/04/23 01:39:22;;;;;;;12.07;6.63;;;2.30;99.90;;;;;;5008442;28;20102;-71
2021/04/23 01:41:48;;;;;;;13.15;6.53;;;2.20;99.90;;;;;;5009836;28;20042;-73
2021/04/23 01:44:16;;;;;;;10.02;6.00;;;2.30;99.90;;;;;;5010005;28;20068;-72
2021/04/23 01:46:42;;;;;;;12.65;6.45;;;2.40;99.90;;;;;;5011442;28;20065;-71
2021/04/23 01:49:13;;;;;;;13.38;6.28;;;2.50;99.90;;;;;;5010112;28;20480;-72
2021/04/23 01:51:43;;;;;;;14.25;6.45;;;2.50;99.90;;;;;;5010989;28;20097;-71
2021/04/23 01:54:11;;;;;;;13.20;6.45;;;2.40;99.90;;;;;;5011091;28;20030;-71
2021/04/23 01:56:37;;;;;;;14.15;7.20;;;2.30;99.90;;;;;;5011462;28;20476;-72
2021/04/23 01:59:04;;;;;;;14.30;7.13;;;2.20;99.90;;;;;;5012881;28;20369;-72
2021/04/23 02:01:30;;;;;;;14.60;6.80;;;2.20;99.90;;;;;;5014556;28;20500;-71
2021/04/23 02:03:56;;;;;;;13.13;6.28;;;2.30;99.90;;;;;;5005457;28;20022;-73
2021/04/23 02:06:22;;;;;;;15.15;7.43;;;2.20;99.90;;;;;;5014723;28;20033;-74
2021/04/23 02:08:48;;;;;;;13.25;6.90;;;2.20;99.90;;;;;;5013629;28;20444;-74
2021/04/23 02:11:16;;;;;;;12.57;6.70;;;2.20;99.90;;;;;;5013375;28;20542;-73
2021/04/23 02:13:45;;;;;;;17.45;7.60;;;2.00;99.90;;;;;;5014433;28;20026;-73
2021/04/23 02:16:14;;;;;;;16.75;7.07;;;2.00;99.90;;;;;;5014740;28;20026;-73
2021/04/23 02:18:40;;;;;;;14.55;7.35;;;1.90;99.90;;;;;;5004958;28;20077;-73
2021/04/23 02:21:07;;;;;;;16.80;7.10;;;1.80;99.90;;;;;;5006768;28;20030;-73
2021/04/23 02:23:33;;;;;;;12.27;7.38;;;1.80;99.90;;;;;;5003045;28;20022;-73
2021/04/23 02:25:59;;;;;;;12.50;6.38;;;2.00;99.90;;;;;;5000085;28;20548;-73
2021/04/23 02:28:25;;;;;;;9.75;6.20;;;2.10;99.90;;;;;;5004871;28;20106;-73
2021/04/23 02:31:01;;;;;;;16.60;7.18;;;2.10;99.90;;;;;;5010844;28;20021;-74
2021/04/23 02:33:27;;;;;;;14.10;6.93;;;1.70;99.90;;;;;;5014080;28;20083;-72
2021/04/23 02:35:58;;;;;;;14.38;6.80;;;1.70;99.90;;;;;;5013968;28;20105;-72
2021/04/23 02:38:24;;;;;;;13.38;6.57;;;1.70;99.90;;;;;;5014172;28;20022;-72
2021/04/23 02:40:52;;;;;;;12.82;7.03;;;1.90;99.90;;;;;;5013982;28;20044;-72
2021/04/23 02:43:23;;;;;;;12.10;6.10;;;1.80;99.90;;;;;;5002206;28;20037;-72
2021/04/23 02:45:50;;;;;;;14.65;6.65;;;1.90;99.90;;;;;;5013194;28;20033;-73
2021/04/23 02:48:16;;;;;;;14.52;6.72;;;1.80;99.90;;;;;;5013957;28;20073;-72
2021/04/23 02:50:46;;;;;;;12.25;7.15;;;1.60;99.90;;;;;;5013750;28;20513;-71
2021/04/23 02:53:13;;;;;;;12.90;5.97;;;1.70;99.90;;;;;;5013824;28;20105;-74
2021/04/23 02:55:39;;;;;;;15.70;6.82;;;2.00;99.90;;;;;;5012423;28;20080;-74
2021/04/23 02:58:04;;;;;;;12.65;6.80;;;2.20;99.90;;;;;;5012427;28;20030;-72
2021/04/23 03:00:34;;;;;;;16.35;7.60;;;2.30;99.90;;;;;;5012383;28;20099;-73
2021/04/23 03:03:00;;;;;;;12.90;6.70;;;2.10;99.90;;;;;;5012813;28;20030;-74
2021/04/23 03:05:26;;;;;;;14.73;6.88;;;1.80;99.90;;;;;;5015454;28;20033;-73
2021/04/23 03:07:54;;;;;;;13.05;7.18;;;1.90;99.90;;;;;;5013547;28;20022;-72
2021/04/23 03:10:24;;;;;;;14.00;6.78;;;1.70;99.90;;;;;;5012954;28;20022;-71
2021/04/23 03:12:50;;;;;;;12.55;6.13;;;1.60;99.90;;;;;;5010941;28;20446;-72
2021/04/23 03:15:17;;;;;;;14.02;7.40;;;1.40;99.90;;;;;;5002914;28;20030;-73
2021/04/23 03:17:42;;;;;;;12.93;7.38;;;1.10;99.90;;;;;;5014293;28;20026;-73
2021/04/23 03:20:14;;;;;;;13.30;7.28;;;0.70;99.90;;;;;;5013281;28;20037;-73
2021/04/23 03:22:40;;;;;;;12.35;6.97;;;0.50;99.90;;;;;;5011798;28;20572;-73
2021/04/23 03:25:07;;;;;;;13.73;7.00;;;0.70;99.90;;;;;;5013101;28;20037;-72
2021/04/23 03:27:33;;;;;;;12.77;6.38;;;0.80;99.90;;;;;;5013308;28;20045;-72
2021/04/23 03:30:00;;;;;;;14.93;7.03;;;0.90;99.90;;;;;;5013505;28;20054;-73
2021/04/23 03:32:26;;;;;;;14.10;6.70;;;1.00;99.90;;;;;;4999760;28;20052;-73
2021/04/23 03:34:51;;;;;;;12.52;7.88;;;1.00;99.90;;;;;;5012967;28;20571;-75
2021/04/23 03:37:17;;;;;;;15.55;7.00;;;0.70;99.90;;;;;;5013035;28;20030;-70
2021/04/23 03:39:42;;;;;;;14.57;7.30;;;0.80;99.90;;;;;;5012946;28;20110;-73
2021/04/23 03:42:08;;;;;;;16.60;7.10;;;1.00;99.90;;;;;;5007919;28;20034;-73
2021/04/23 03:44:33;;;;;;;19.13;8.10;;;0.70;99.90;;;;;;5001994;28;20022;-73
2021/04/23 03:46:59;;;;;;;14.57;7.35;;;0.50;99.90;;;;;;5013267;28;20030;-71
2021/04/23 03:49:24;;;;;;;19.15;8.07;;;0.40;99.90;;;;;;5012940;28;20081;-71
2021/04/23 03:51:50;;;;;;;15.65;8.27;;;0.70;99.90;;;;;;5011484;28;20017;-73
2021/04/23 03:54:16;;;;;;;16.65;7.72;;;0.70;99.90;;;;;;5012922;28;20033;-70
2021/04/23 03:56:41;;;;;;;17.95;8.02;;;0.70;99.90;;;;;;5012774;28;20026;-72
2021/04/23 03:59:07;;;;;;;16.35;7.28;;;0.80;99.90;;;;;;5012866;28;20817;-72
2021/04/23 04:01:34;;;;;;;15.63;7.90;;;1.00;99.90;;;;;;5011322;28;20026;-72
2021/04/23 04:04:01;;;;;;;17.55;8.60;;;0.80;99.90;;;;;;5011310;28;20026;-70
2021/04/23 04:06:26;;;;;;;18.05;7.88;;;0.50;99.90;;;;;;5026037;28;20033;-69
2021/04/23 04:08:52;;;;;;;17.13;8.10;;;0.60;99.90;;;;;;5012700;28;20022;-72
2021/04/23 04:11:19;;;;;;;14.63;7.45;;;0.40;99.90;;;;;;5011408;28;20561;-73
2021/04/23 04:13:45;;;;;;;18.60;8.68;;;0.70;99.90;;;;;;5002152;28;20023;-73
2021/04/23 04:16:10;;;;;;;17.17;7.85;;;0.70;99.90;;;;;;5008288;28;20029;-73
2021/04/23 04:18:36;;;;;;;17.90;8.25;;;0.70;99.90;;;;;;5012357;28;20022;-72
2021/04/23 04:21:03;;;;;;;19.67;8.32;;;0.80;99.90;;;;;;5012207;28;20054;-71
2021/04/23 04:23:28;;;;;;;21.48;10.63;;;0.80;99.90;;;;;;5011294;28;20028;-71
2021/04/23 04:25:57;;;;;;;19.92;10.15;;;0.90;99.90;;;;;;5012283;28;20450;-72
2021/04/23 04:28:24;;;;;;;18.10;10.75;;;0.90;99.90;;;;;;5011319;28;20042;-73
2021/04/23 04:30:50;;;;;;;17.92;10.30;;;0.90;99.90;;;;;;5012173;28;20025;-72
2021/04/23 04:33:16;;;;;;;19.88;10.70;;;1.00;99.90;;;;;;5012060;28;20018;-72
2021/04/23 04:35:42;;;;;;;19.25;10.52;;;1.00;99.90;;;;;;5011888;28;20084;-72
2021/04/23 04:38:10;;;;;;;19.05;10.05;;;1.00;99.90;;;;;;5012258;28;20076;-72
2021/04/23 04:40:37;;;;;;;16.75;9.73;;;0.90;99.90;;;;;;4997448;28;20110;-72
2021/04/23 04:43:05;;;;;;;17.48;9.40;;;0.90;99.90;;;;;;5012106;28;20484;-73
2021/04/23 04:45:31;;;;;;;16.08;8.88;;;1.00;99.90;;;;;;5010695;28;20088;-73
2021/04/23 04:47:57;;;;;;;16.90;7.88;;;1.30;99.90;;;;;;5012028;28;20101;-72
2021/04/23 04:50:30;;;;;;;13.15;7.20;;;1.30;99.90;;;;;;5010744;28;20033;-73
2021/04/23 04:52:58;;;;;;;19.15;7.90;;;1.40;99.90;;;;;;5011868;28;20173;-72
2021/04/23 04:55:37;;;;;;;13.45;8.00;;;1.50;99.90;;;;;;5011624;28;20026;-75
2021/04/23 04:58:04;;;;;;;14.00;8.80;;;1.40;99.90;;;;;;5012039;28;20042;-72
2021/04/23 05:00:30;;;;;;;15.27;7.47;;;1.60;99.90;;;;;;5012037;28;20155;-73
2021/04/23 05:02:56;;;;;;;16.73;8.52;;;1.60;99.90;;;;;;4998587;28;20156;-73
2021/04/23 05:05:23;;;;;;;17.88;8.27;;;1.60;99.90;;;;;;5011624;28;20026;-74
2021/04/23 05:07:49;;;;;;;15.43;8.88;;;1.70;99.90;;;;;;5010594;28;20030;-73
2021/04/23 05:10:15;;;;;;;17.83;9.40;;;1.80;99.90;;;;;;5002816;28;20027;-73
2021/04/23 05:12:41;;;;;;;14.02;8.40;;;1.80;99.90;;;;;;5003930;28;20022;-74
2021/04/23 05:15:09;;;;;;;14.60;7.95;;;1.70;99.90;;;;;;4998475;28;20034;-73
2021/04/23 05:17:34;;;;;;;13.80;8.75;;;1.80;99.90;;;;;;4998696;28;20038;-71
2021/04/23 05:20:00;;;;;;;15.35;8.85;;;1.90;99.90;;;;;;5002623;28;20544;-71
2021/04/23 05:22:26;;;;;;;15.43;8.18;;;1.90;99.90;;;;;;5012520;28;20391;-72
2021/04/23 05:24:51;;;;;;;15.32;8.70;;;2.00;99.90;;;;;;5011592;28;20030;-72
2021/04/23 05:27:17;;;;;;;14.05;8.52;;;2.30;99.90;;;;;;4998430;28;20034;-71
2021/04/23 05:29:43;;;;;;;15.95;8.43;;;2.10;99.90;;;;;;5011753;28;20057;-73
2021/04/23 05:32:08;;;;;;;18.83;9.32;;;2.20;99.90;;;;;;5011427;28;20396;-72
2021/04/23 05:34:34;;;;;;;16.23;9.10;;;2.30;99.90;;;;;;5013955;28;20097;-72
2021/04/23 05:37:00;;;;;;;18.73;9.65;;;2.30;99.90;;;;;;5002261;28;20030;-72
2021/04/23 05:39:25;;;;;;;17.17;9.57;;;2.40;99.90;;;;;;5015876;28;20083;-71
2021/04/23 05:41:52;;;;;;;14.93;9.38;;;2.50;99.90;;;;;;5013248;28;20038;-72
2021/04/23 05:44:18;;;;;;;16.50;9.00;;;2.50;99.90;;;;;;5003010;28;20024;-72
2021/04/23 05:46:43;;;;;;;17.98;8.98;;;2.80;99.90;;;;;;5015111;28;20022;-74
2021/04/23 05:49:09;;;;;;;15.95;8.43;;;2.90;99.90;;;;;;5013854;28;20492;-73
2021/04/23 05:51:35;;;;;;;12.68;8.15;;;3.00;99.90;;;;;;5014035;28;20480;-74
2021/04/23 05:54:01;;;;;;;14.68;8.70;;;3.20;99.90;;;;;;5013792;28;20026;-74
2021/04/23 05:56:27;;;;;;;18.23;9.77;;;3.20;99.90;;;;;;5014942;28;20040;-74
2021/04/23 05:58:54;;;;;;;13.60;9.73;;;3.20;99.90;;;;;;5015117;28;20018;-73
2021/04/23 06:01:21;;;;;;;17.63;9.82;;;3.20;99.90;;;;;;5015297;28;20029;-73
2021/04/23 06:03:47;;;;;;;18.88;9.80;;;3.30;99.90;;;;;;5015291;28;20034;-72
2021/04/23 06:06:12;;;;;;;16.05;10.07;;;3.30;99.90;;;;;;5014139;28;20028;-72
2021/04/23 06:08:38;;;;;;;18.10;10.63;;;3.40;99.90;;;;;;5013901;28;20366;-72
2021/04/23 06:11:05;;;;;;;17.77;10.85;;;3.40;99.90;;;;;;5012794;28;20022;-72
2021/04/23 06:13:31;;;;;;;60.38;31.02;;;3.50;99.90;;;;;;5015906;28;20076;-72
2021/04/23 06:15:56;;;;;;;31.25;16.60;;;3.60;99.90;;;;;;5014595;28;20030;-72
2021/04/23 06:18:22;;;;;;;24.08;13.38;;;3.60;99.90;;;;;;5014845;28;20084;-73
2021/04/23 06:20:48;;;;;;;24.20;12.15;;;3.70;99.90;;;;;;5014825;28;20037;-73
2021/04/23 06:23:15;;;;;;;29.80;17.20;;;3.70;99.90;;;;;;5015190;28;20028;-72
2021/04/23 06:25:41;;;;;;;43.33;25.80;;;3.90;99.90;;;;;;5001024;28;20046;-73
2021/04/23 06:28:07;;;;;;;30.42;18.60;;;3.80;99.90;;;;;;5007991;28;20053;-72
2021/04/23 06:30:35;;;;;;;31.75;18.60;;;4.10;99.90;;;;;;5009472;28;20044;-72
2021/04/23 06:33:07;;;;;;;40.85;22.55;;;4.10;99.90;;;;;;5006158;28;20029;-74
2021/04/23 06:35:33;;;;;;;21.00;13.02;;;4.30;99.90;;;;;;5006774;28;20029;-72
2021/04/23 06:37:59;;;;;;;51.03;31.58;;;4.30;99.90;;;;;;5004216;28;20393;-73
2021/04/23 06:40:25;;;;;;;31.25;17.52;;;4.50;99.90;;;;;;5000412;28;20464;-72
2021/04/23 06:42:50;;;;;;;31.10;19.02;;;4.60;99.90;;;;;;5006426;28;20070;-73
2021/04/23 06:45:20;;;;;;;20.65;11.10;;;4.70;99.90;;;;;;5008714;28;20040;-73
2021/04/23 06:47:46;;;;;;;18.20;8.65;;;4.90;99.90;;;;;;5014754;28;20026;-72
2021/04/23 06:50:15;;;;;;;16.00;8.30;;;4.90;99.90;;;;;;5013319;28;20117;-74
2021/04/23 06:52:42;;;;;;;16.83;7.60;;;4.90;99.90;;;;;;5013253;28;20061;-73
2021/04/23 06:55:09;;;;;;;17.63;7.95;;;5.00;99.90;;;;;;5013171;28;20113;-74
2021/04/23 06:57:35;;;;;;;14.98;7.30;;;5.00;99.90;;;;;;5013018;28;20037;-74
2021/04/23 07:00:02;;;;;;;15.32;7.93;;;5.10;99.90;;;;;;5014524;28;20022;-74
2021/04/23 07:02:28;;;;;;;13.90;7.35;;;5.20;99.90;;;;;;5013266;28;20392;-74
2021/04/23 07:04:53;;;;;;;16.90;8.43;;;5.40;99.90;;;;;;5017929;28;20018;-69
2021/04/23 07:07:19;;;;;;;12.57;7.32;;;5.50;99.90;;;;;;5023565;28;20036;-73
2021/04/23 07:09:44;;;;;;;14.60;7.63;;;5.60;99.90;;;;;;5012394;28;20471;-72
2021/04/23 07:12:10;;;;;;;18.55;7.82;;;5.80;99.90;;;;;;5004110;28;20034;-72
2021/04/23 07:14:35;;;;;;;15.13;7.32;;;5.50;99.90;;;;;;5006150;28;20022;-73
2021/04/23 07:17:01;;;;;;;12.10;7.70;;;5.60;99.90;;;;;;5003968;28;20037;-73
2021/04/23 07:19:27;;;;;;;20.00;8.20;;;5.70;99.90;;;;;;4999579;28;20033;-73
2021/04/23 07:21:52;;;;;;;15.77;7.85;;;5.70;99.90;;;;;;5002384;28;20109;-73
2021/04/23 07:24:18;;;;;;;14.80;8.05;;;5.80;99.90;;;;;;5006228;28;20023;-73
2021/04/23 07:26:43;;;;;;;16.33;7.80;;;5.80;99.90;;;;;;5003523;28;20037;-73
2021/04/23 07:29:09;;;;;;;14.65;7.93;;;6.00;99.90;;;;;;5012900;28;20053;-74
2021/04/23 07:31:34;;;;;;;19.13;8.73;;;6.10;99.90;;;;;;5011459;28;20033;-73
2021/04/23 07:34:01;;;;;;;13.13;8.20;;;6.10;99.90;;;;;;5012881;28;20511;-73
2021/04/23 07:36:27;;;;;;;13.60;7.70;;;6.30;99.90;;;;;;5012798;28;20033;-73
2021/04/23 07:38:52;;;;;;;16.85;8.68;;;6.40;99.90;;;;;;5013418;28;20101;-72
2021/04/23 07:41:18;;;;;;;16.83;8.35;;;6.50;99.90;;;;;;5003851;28;20138;-73
2021/04/23 07:43:43;;;;;;;18.67;8.40;;;6.60;99.90;;;;;;5006631;28;20108;-72
2021/04/23 07:46:09;;;;;;;14.80;8.30;;;6.60;99.90;;;;;;5003074;28;20117;-74
2021/04/23 07:48:35;;;;;;;15.15;7.80;;;6.80;99.90;;;;;;5012285;28;20026;-74
2021/04/23 07:51:01;;;;;;;16.50;7.95;;;7.00;99.90;;;;;;5012812;28;20018;-74
2021/04/23 07:53:27;;;;;;;13.50;7.40;;;7.00;99.90;;;;;;5012345;28;20510;-73
2021/04/23 07:55:52;;;;;;;20.40;7.95;;;7.00;99.90;;;;;;5012995;28;20030;-73
2021/04/23 07:58:18;;;;;;;11.52;7.07;;;7.00;99.90;;;;;;5012386;28;20052;-74
2021/04/23 08:00:44;;;;;;;13.60;7.53;;;7.20;99.90;;;;;;5013862;28;20446;-74
2021/04/23 08:03:10;;;;;;;16.48;7.72;;;7.30;99.90;;;;;;5014079;28;20400;-74
2021/04/23 08:05:35;;;;;;;14.93;8.27;;;7.40;99.90;;;;;;5023062;28;20026;-72
2021/04/23 08:08:02;;;;;;;12.82;6.97;;;7.40;99.90;;;;;;5017290;28;20041;-72
2021/04/23 08:10:28;;;;;;;16.02;7.90;;;7.50;99.90;;;;;;5014013;28;20018;-73
2021/04/23 08:12:54;;;;;;;11.88;6.93;;;7.60;99.90;;;;;;5013377;28;20041;-74
2021/04/23 08:15:23;;;;;;;15.82;8.10;;;7.50;99.90;;;;;;5013227;28;20396;-73
2021/04/23 08:17:49;;;;;;;16.80;8.02;;;7.50;99.90;;;;;;5013517;28;20048;-73
2021/04/23 08:20:15;;;;;;;11.60;7.07;;;7.60;99.90;;;;;;5012253;28;20485;-74
2021/04/23 08:22:41;;;;;;;14.23;6.88;;;7.70;99.90;;;;;;5012030;28;20034;-73
2021/04/23 08:25:08;;;;;;;13.35;6.78;;;7.60;99.90;;;;;;5013286;28;20079;-73
2021/04/23 08:27:35;;;;;;;16.35;7.10;;;7.60;99.90;;;;;;4998652;28;20033;-73
2021/04/23 08:30:01;;;;;;;14.55;7.88;;;7.80;99.90;;;;;;5013939;28;20376;-72
2021/04/23 08:32:27;;;;;;;11.60;7.50;;;7.80;99.90;;;;;;5013346;28;20507;-73
2021/04/23 08:34:52;;;;;;;15.55;7.30;;;7.90;99.90;;;;;;5012891;28;20026;-72
2021/04/23 08:37:18;;;;;;;19.60;8.52;;;8.00;99.90;;;;;;5013493;28;20065;-73
2021/04/23 08:39:43;;;;;;;16.55;8.23;;;7.90;99.90;;;;;;5012759;28;20030;-73
2021/04/23 08:42:09;;;;;;;17.27;7.38;;;8.00;99.90;;;;;;5012814;28;20038;-73
2021/04/23 08:44:34;;;;;;;14.60;7.43;;;8.10;99.90;;;;;;5012262;28;20026;-72
2021/04/23 08:47:00;;;;;;;16.73;7.53;;;8.30;99.90;;;;;;5012382;28;20467;-73
2021/04/23 08:49:26;;;;;;;15.02;8.18;;;8.20;99.90;;;;;;5012420;28;20100;-75
2021/04/23 08:51:52;;;;;;;16.52;8.13;;;8.30;99.90;;;;;;4998947;28;20054;-75
2021/04/23 08:54:20;;;;;;;18.25;8.15;;;8.30;99.90;;;;;;5012350;28;20030;-73
2021/04/23 08:56:47;;;;;;;16.27;8.30;;;8.50;99.90;;;;;;5013089;28;20053;-73
2021/04/23 08:59:13;;;;;;;16.90;8.77;;;8.50;99.90;;;;;;5012064;28;20022;-72
2021/04/23 09:01:39;;;;;;;15.57;7.82;;;8.60;99.90;;;;;;4998390;28;20370;-72
2021/04/23 09:04:04;;;;;;;13.57;8.20;;;8.60;99.90;;;;;;5012168;28;20026;-73
2021/04/23 09:06:30;;;;;;;12.63;7.35;;;8.80;99.90;;;;;;5012491;28;20455;-73
2021/04/23 09:08:56;;;;;;;10.93;6.95;;;8.80;99.90;;;;;;5015296;28;20033;-73
2021/04/23 09:11:38;;;;;;;15.50;7.93;;;8.80;99.90;;;;;;5015680;28;20018;-73
2021/04/23 09:14:19;;;;;;;15.15;7.72;;;8.70;99.90;;;;;;5016508;28;20026;-73
2021/04/23 09:16:45;;;;;;;14.50;7.45;;;8.70;99.90;;;;;;5004900;28;20109;-73
2021/04/23 09:19:34;;;;;;;15.32;7.50;;;8.80;99.90;;;;;;5016306;28;20489;-73
2021/04/23 09:22:19;;;;;;;19.23;8.55;;;8.80;99.90;;;;;;5003792;28;20088;-73
2021/04/23 09:24:55;;;;;;;13.10;7.35;;;9.00;99.90;;;;;;5003388;28;20018;-73
2021/04/23 09:27:28;;;;;;;15.25;7.70;;;9.30;99.90;;;;;;5015034;28;20491;-73
2021/04/23 09:29:57;;;;;;;13.90;7.55;;;9.40;99.90;;;;;;5016502;28;20025;-73
2021/04/23 09:32:25;;;;;;;12.35;7.28;;;9.40;99.90;;;;;;5016020;28;20036;-74
2021/04/23 09:34:55;;;;;;;13.48;7.55;;;9.60;99.90;;;;;;5016356;28;20068;-73
2021/04/23 09:37:25;;;;;;;15.68;6.40;;;9.30;99.90;;;;;;5015379;28;20056;-73
2021/04/23 09:39:52;;;;;;;13.82;7.38;;;9.40;99.90;;;;;;5015615;28;20411;-73
2021/04/23 09:42:19;;;;;;;13.32;7.88;;;9.30;99.90;;;;;;5016451;28;20034;-73
2021/04/23 09:44:48;;;;;;;11.38;7.20;;;9.20;99.90;;;;;;5016809;28;20025;-73
2021/04/23 09:47:20;;;;;;;10.85;7.43;;;9.50;99.90;;;;;;5004045;28;20022;-73
2021/04/23 09:49:54;;;;;;;16.95;6.78;;;9.60;99.90;;;;;;5015945;28;20049;-73
2021/04/23 09:52:21;;;;;;;10.45;6.53;;;9.90;99.90;;;;;;5014085;28;20032;-73
2021/04/23 09:54:49;;;;;;;18.02;7.45;;;10.00;99.90;;;;;;5014768;28;20029;-73
2021/04/23 09:57:31;;;;;;;11.43;7.32;;;9.90;99.90;;;;;;5024324;28;20056;-73
2021/04/23 09:59:58;;;;;;;13.48;6.88;;;10.00;99.90;;;;;;5010921;28;20029;-73
2021/04/23 10:02:27;;;;;;;12.63;6.93;;;10.00;99.90;;;;;;5015449;28;20495;-73
2021/04/23 10:04:53;;;;;;;11.77;7.07;;;10.10;99.90;;;;;;5018012;28;20025;-73
2021/04/23 10:07:23;;;;;;;10.88;6.47;;;10.20;99.90;;;;;;5025430;28;20026;-73
2021/04/23 10:10:03;;;;;;;10.90;7.40;;;10.50;99.90;;;;;;5014606;28;20477;-73
2021/04/23 10:12:29;;;;;;;11.27;7.38;;;10.50;99.90;;;;;;5007566;28;20075;-73
2021/04/23 10:15:12;;;;;;;11.10;6.85;;;10.60;99.90;;;;;;5008025;28;20034;-73
2021/04/23 10:17:39;;;;;;;12.02;7.10;;;10.70;99.90;;;;;;5015419;28;20420;-73
2021/04/23 10:20:07;;;;;;;14.98;6.70;;;10.20;99.90;;;;;;5015694;28;20569;-73
2021/04/23 10:22:33;;;;;;;14.52;6.85;;;10.20;99.90;;;;;;5014456;28;20095;-73
2021/04/23 10:24:58;;;;;;;11.82;6.60;;;10.60;99.90;;;;;;5014029;28;20494;-73
2021/04/23 10:27:24;;;;;;;12.90;6.97;;;10.70;99.90;;;;;;5015386;28;20079;-73
2021/04/23 10:29:52;;;;;;;12.45;7.47;;;10.70;99.90;;;;;;5016093;28;20381;-73
2021/04/23 10:32:22;;;;;;;11.38;6.38;;;10.40;99.90;;;;;;5014444;28;20615;-73
2021/04/23 10:34:49;;;;;;;10.80;6.60;;;10.30;99.90;;;;;;5014760;28;20392;-72
2021/04/23 10:37:15;;;;;;;15.27;7.45;;;10.60;99.90;;;;;;5013811;28;20040;-74
2021/04/23 10:39:47;;;;;;;15.13;7.50;;;10.90;99.90;;;;;;5014775;28;20033;-73
2021/04/23 10:42:40;;;;;;;12.75;7.28;;;11.00;99.90;;;;;;5014474;28;20650;-74
2021/04/23 10:45:38;;;;;;;12.73;6.25;;;11.60;99.90;;;;;;5013444;28;20033;-74
2021/04/23 10:48:24;;;;;;;12.35;6.35;;;11.50;99.90;;;;;;5014338;28;20080;-73
2021/04/23 10:50:51;;;;;;;12.05;6.07;;;11.40;99.90;;;;;;5013849;28;20564;-74
2021/04/23 10:53:50;;;;;;;10.90;5.57;;;11.60;99.90;;;;;;5013108;28;20034;-74
2021/04/23 10:56:29;;;;;;;13.77;5.30;;;11.60;99.90;;;;;;5009918;28;20040;-73
2021/04/23 10:59:00;;;;;;;10.80;5.53;;;11.50;99.90;;;;;;5005860;28;20070;-73
2021/04/23 11:01:37;;;;;;;10.75;5.53;;;11.70;99.90;;;;;;5013725;28;20072;-73
2021/04/23 11:04:05;;;;;;;9.38;4.85;;;12.00;99.90;;;;;;5014210;28;20037;-73
2021/04/23 11:06:36;;;;;;;11.73;4.60;;;12.10;99.90;;;;;;5014311;28;20026;-73
2021/04/23 11:09:03;;;;;;;8.20;4.65;;;12.00;99.90;;;;;;5012269;28;20022;-74
2021/04/23 11:11:34;;;;;;;9.40;5.43;;;12.00;99.90;;;;;;5013413;28;20020;-74
2021/04/23 11:14:22;;;;;;;8.35;5.60;;;11.90;99.90;;;;;;5012283;28;20030;-74
2021/04/23 11:16:48;;;;;;;12.38;5.13;;;12.10;99.90;;;;;;5007629;28;20048;-73
2021/04/23 11:19:20;;;;;;;9.68;5.38;;;12.30;99.90;;;;;;5013214;28;20115;-73
2021/04/23 11:21:53;;;;;;;11.18;5.93;;;12.40;99.90;;;;;;5013400;28;20026;-74
2021/04/23 11:24:19;;;;;;;11.23;5.43;;;12.60;99.90;;;;;;5012234;28;20387;-73
2021/04/23 11:29:21;;;;;;;9.30;5.90;;;13.40;99.90;;;;;;5012948;28;20030;-74
2021/04/23 11:32:12;;;;;;;10.57;5.93;;;13.40;99.90;;;;;;5012182;28;20495;-73
2021/04/23 11:34:57;;;;;;;8.90;5.43;;;13.00;99.90;;;;;;5009342;28;20506;-73
2021/04/23 11:37:46;;;;;;;7.93;5.15;;;12.80;99.90;;;;;;5012816;28;20033;-74
2021/04/23 11:40:29;;;;;;;9.27;5.40;;;13.20;99.90;;;;;;5012597;28;20660;-74
2021/04/23 11:43:02;;;;;;;7.78;5.05;;;13.40;99.70;;;;;;5009119;28;20029;-74
2021/04/23 11:45:47;;;;;;;8.60;4.28;;;12.90;99.90;;;;;;5012590;28;20018;-73
2021/04/23 11:48:13;;;;;;;7.13;4.28;;;13.20;97.40;;;;;;5012445;28;20033;-74
2021/04/23 11:50:43;;;;;;;9.10;4.68;;;13.30;94.40;;;;;;5010271;28;20072;-73
2021/04/23 11:53:11;;;;;;;9.13;4.38;;;13.30;96.30;;;;;;5010954;28;20033;-73
2021/04/23 11:55:41;;;;;;;9.98;5.68;;;13.40;94.60;;;;;;5008642;28;20113;-74
2021/04/23 11:58:08;;;;;;;9.98;4.88;;;13.40;93.40;;;;;;5012068;28;20038;-74
2021/04/23 12:00:35;;;;;;;9.75;4.22;;;13.60;92.40;;;;;;5011964;28;20026;-74
2021/04/23 12:03:10;;;;;;;6.45;4.28;;;13.60;91.20;;;;;;5011912;28;20092;-73
2021/04/23 12:05:40;;;;;;;7.55;4.97;;;13.70;91.30;;;;;;5011015;28;20021;-74
2021/04/23 12:08:17;;;;;;;10.45;5.00;;;13.80;92.20;;;;;;5011952;28;20026;-74
2021/04/23 12:10:50;;;;;;;8.15;4.65;;;13.70;91.80;;;;;;5011187;28;20033;-72
2021/04/23 12:13:31;;;;;;;8.13;4.25;;;14.00;93.00;;;;;;5012235;28;20030;-73
2021/04/23 12:16:05;;;;;;;5.57;3.90;;;14.40;91.00;;;;;;5009595;28;20590;-74
2021/04/23 12:18:31;;;;;;;4.97;3.42;;;14.70;89.50;;;;;;5009686;28;20089;-73
2021/04/23 12:20:59;;;;;;;8.07;4.25;;;14.30;84.40;;;;;;5011103;28;20026;-74
2021/04/23 12:23:29;;;;;;;7.78;3.50;;;14.30;85.50;;;;;;5009220;28;20548;-73
2021/04/23 12:25:59;;;;;;;7.70;4.07;;;14.00;81.70;;;;;;5012070;28;20087;-75
2021/04/23 12:28:33;;;;;;;7.22;3.38;;;14.30;84.50;;;;;;5012040;28;20109;-73
2021/04/23 12:31:19;;;;;;;6.95;4.07;;;15.00;82.70;;;;;;5011867;28;20022;-74
2021/04/23 12:33:45;;;;;;;7.95;4.47;;;15.50;83.00;;;;;;5012005;28;20032;-73
2021/04/23 12:36:13;;;;;;;6.78;4.00;;;15.70;82.10;;;;;;5012093;28;20029;-73
2021/04/23 12:38:41;;;;;;;5.72;4.15;;;15.40;77.00;;;;;;5011852;28;20026;-73
2021/04/23 12:41:24;;;;;;;8.40;4.40;;;15.50;75.80;;;;;;5011585;28;20108;-74
2021/04/23 12:43:53;;;;;;;9.80;4.07;;;16.40;76.50;;;;;;5010488;28;20030;-72
2021/04/23 12:46:24;;;;;;;7.72;4.40;;;16.00;76.00;;;;;;5011929;28;20018;-74
2021/04/23 12:48:55;;;;;;;7.03;4.00;;;15.80;73.30;;;;;;5011773;28;20034;-73
2021/04/23 12:51:21;;;;;;;7.63;4.25;;;15.50;76.90;;;;;;5011571;28;20456;-73
2021/04/23 12:53:49;;;;;;;6.65;4.20;;;16.20;71.80;;;;;;5010092;28;20030;-73
2021/04/23 12:56:18;;;;;;;7.18;4.15;;;17.40;70.60;;;;;;5011607;28;20102;-73
2021/04/23 12:58:43;;;;;;;9.15;4.40;;;17.60;69.00;;;;;;5012337;28;20776;-73